Terminal Aerodrome Forecast
Issued by NWS

Home | Current Version | Previous Version | Text Only | Print | Product List | Glossary On
Versions: 1 2 3 4 5 6 7 8 9 10 11 12 13 14 15 16 17
000
FTUS45 KRIW 160400 AAA
TAFBPI
TAF AMD
KBPI 160400Z 1604/1624 35020G30KT 5SM -SN SCT015 OVC045
      TEMPO 1604/1606 2SM -SN OVC015
     FM160600 33010KT P6SM SCT050 BKN250=

USA.gov is the U.S. government's official web portal to all federal, state and local government web resources and services.